Terminal Aerodrome Forecast
Issued by NWS

Home | Current Version | Previous Version | Text Only | Print | Product List | Glossary On
Versions: 1 2 3 4 5 6 7 8 9 10 11 12
000
FTUS45 KGGW 290500
TAFSDY
TAF
KSDY 290520Z 2906/3006 30009KT P6SM FEW250
     FM290900 33011KT P6SM VCTS BKN050CB
     FM291200 35005KT P6SM VCSH BKN040
     FM291800 VRB05KT P6SM BKN045
     FM300000 VRB06KT P6SM SKC
      AMD LTD TO CLD VIS AND WIND=

USA.gov is the U.S. government's official web portal to all federal, state and local government web resources and services.